Time,TemperatureF,DewpointF,PressureIn,WindDirection,WindDirectionDegrees,WindSpeedMPH,WindSpeedGustMPH,Humidity,HourlyPrecipIn,Conditions,Clouds,dailyrainin,SoftwareType,DateUTC
2013-03-06 00:00:00,35.6,23.9,30.03,WNW,302,9.8,12.6,62,0.00,,OVC075,0.00,VWS V14.01,2013-03-06 06:00:00,
2013-03-06 00:05:00,35.5,23.4,30.04,NW,321,7.0,12.6,61,0.00,,OVC075,0.00,VWS V14.01,2013-03-06 06:05:00,
2013-03-06 06:04:00,34.7,24.9,30.11,West,270,8.4,15.4,67,0.00,,OVC075,0.00,VWS V14.01,2013-03-06 12:04:00,
2013-03-06 06:09:00,34.7,25.2,30.12,West,278,15.4,18.2,68,0.00,,OVC039,0.00,VWS V14.01,2013-03-06 12:09:00,
2013-03-06 06:14:00,34.7,25.2,30.12,WNW,290,11.2,12.6,68,0.00,,OVC039,0.00,VWS V14.01,2013-03-06 12:14:00,
2013-03-06 06:19:00,34.7,25.2,30.12,NW,325,9.8,18.2,68,0.00,,OVC039,0.00,VWS V14.01,2013-03-06 12:19:00,
2013-03-06 06:24:00,34.7,25.6,30.13,WNW,293,12.6,15.4,69,0.00,,OVC039,0.00,VWS V14.01,2013-03-06 12:24:00,
2013-03-06 06:29:00,34.6,25.5,30.13,NW,313,7.0,16.8,69,0.00,,OVC039,0.00,VWS V14.01,2013-03-06 12:29:00,
2013-03-06 06:34:00,34.6,25.5,30.13,NW,318,16.8,16.8,69,0.00,,OVC039,0.00,VWS V14.01,2013-03-06 12:34:00,
2013-03-06 06:39:00,34.6,25.5,30.13,WNW,282,9.8,15.4,69,0.00,,OVC039,0.00,VWS V14.01,2013-03-06 12:39:00,
2013-03-06 06:44:00,34.6,25.8,30.14,NW,319,12.6,21.0,70,0.00,,OVC039,0.00,VWS V14.01,2013-03-06 12:44:00,
2013-03-06 06:49:00,34.6,25.8,30.14,North,355,9.8,18.2,70,0.00,,OVC039,0.00,VWS V14.01,2013-03-06 12:49:00,
2013-03-06 06:54:00,34.6,25.8,30.14,NW,315,16.8,16.8,70,0.00,,OVC039,0.00,VWS V14.01,2013-03-06 12:54:00,
2013-03-06 06:59:00,34.6,25.8,30.15,NW,312,14.0,18.2,70,0.00,,OVC039,0.00,VWS V14.01,2013-03-06 12:59:00,
2013-03-06 07:04:00,34.6,25.8,30.15,West,273,8.4,15.4,70,0.00,,OVC035,0.00,VWS V14.01,2013-03-06 13:04:00,
2013-03-06 07:09:00,34.6,25.8,30.15,NW,307,8.4,14.0,70,0.00,,OVC035,0.00,VWS V14.01,2013-03-06 13:09:00,
2013-03-06 07:14:00,34.6,25.8,30.16,NNW,333,12.6,19.6,70,0.00,,OVC035,0.00,VWS V14.01,2013-03-06 13:14:00,
2013-03-06 07:19:00,34.6,26.2,30.16,WNW,301,7.0,15.4,71,0.00,,OVC035,0.00,VWS V14.01,2013-03-06 13:19:00,
2013-03-06 07:24:00,34.6,26.2,30.17,North,360,15.4,19.6,71,0.00,,OVC035,0.00,VWS V14.01,2013-03-06 13:24:00,
2013-03-06 07:29:00,34.6,26.2,30.17,NW,309,8.4,21.0,71,0.00,,OVC035,0.00,VWS V14.01,2013-03-06 13:29:00,
2013-03-06 07:34:00,34.5,26.4,30.17,WNW,298,8.4,21.0,72,0.00,,OVC035,0.00,VWS V14.01,2013-03-06 13:34:00,
2013-03-06 07:39:00,34.5,26.4,30.18,NW,310,2.8,12.6,72,0.00,,OVC035,0.00,VWS V14.01,2013-03-06 13:39:00,
2013-03-06 07:44:00,34.4,26.3,30.18,NNW,333,8.4,19.6,72,0.00,,OVC035,0.00,VWS V14.01,2013-03-06 13:44:00,
2013-03-06 07:49:00,34.5,26.8,30.18,NW,315,7.0,12.6,73,0.00,,OVC035,0.00,VWS V14.01,2013-03-06 13:49:00,
2013-03-06 07:54:00,34.5,26.4,30.19,West,275,11.2,15.4,72,0.00,,OVC035,0.00,VWS V14.01,2013-03-06 13:54:00,
2013-03-06 07:59:00,34.5,26.4,30.19,NNW,330,15.4,21.0,72,0.00,,OVC035,0.00,VWS V14.01,2013-03-06 13:59:00,
2013-03-06 08:04:00,34.6,26.5,30.19,NW,313,8.4,21.0,72,0.00,,OVC035,0.00,VWS V14.01,2013-03-06 14:04:00,
2013-03-06 08:09:00,34.6,26.5,30.19,WNW,301,8.4,18.2,72,0.00,,OVC035,0.00,VWS V14.01,2013-03-06 14:09:00,
2013-03-06 08:14:00,34.7,26.3,30.20,North,355,8.4,21.0,71,0.00,,OVC035,0.00,VWS V14.01,2013-03-06 14:14:00,
2013-03-06 08:19:00,34.7,26.3,30.19,WNW,298,9.8,16.8,71,0.00,,OVC035,0.00,VWS V14.01,2013-03-06 14:19:00,
2013-03-06 08:24:00,35.3,26.9,30.20,West,273,7.0,15.4,71,0.00,,OVC035,0.00,VWS V14.01,2013-03-06 14:24:00,
2013-03-06 08:29:00,36.0,27.5,30.20,North,350,12.6,15.4,71,0.00,,OVC035,0.00,VWS V14.01,2013-03-06 14:29:00,
2013-03-06 08:34:00,36.4,26.9,30.20,WNW,288,16.8,21.0,68,0.00,,OVC035,0.00,VWS V14.01,2013-03-06 14:34:00,
2013-03-06 08:39:00,36.6,27.0,30.20,WNW,294,9.8,19.6,68,0.00,,OVC035,0.00,VWS V14.01,2013-03-06 14:39:00,
2013-03-06 08:44:00,36.7,27.1,30.20,WNW,284,8.4,22.4,68,0.00,,OVC035,0.00,VWS V14.01,2013-03-06 14:44:00,
2013-03-06 08:49:00,36.7,26.8,30.20,WNW,294,16.8,16.8,67,0.00,,OVC035,0.00,VWS V14.01,2013-03-06 14:49:00,
2013-03-06 08:54:00,36.4,26.1,30.21,WNW,300,12.6,12.6,66,0.00,,OVC035,0.00,VWS V14.01,2013-03-06 14:54:00,
2013-03-06 08:59:00,36.3,26.0,30.21,North,9,19.6,19.6,66,0.00,,OVC035,0.00,VWS V14.01,2013-03-06 14:59:00,
2013-03-06 09:04:00,36.2,26.0,30.21,North,355,16.8,16.8,66,0.00,,BKN045,0.00,VWS V14.01,2013-03-06 15:04:00,
2013-03-06 09:09:00,36.2,26.0,30.21,NNE,30,5.6,16.8,66,0.00,,BKN045,0.00,VWS V14.01,2013-03-06 15:09:00,
2013-03-06 09:14:00,36.2,26.0,30.21,West,279,9.8,14.0,66,0.00,,BKN045,0.00,VWS V14.01,2013-03-06 15:14:00,
2013-03-06 09:20:00,36.3,26.4,30.21,NW,305,5.6,14.0,67,0.00,,BKN045,0.00,VWS V14.01,2013-03-06 15:20:00,
2013-03-06 09:25:00,36.5,26.6,30.22,WSW,254,8.4,8.4,67,0.00,,BKN045,0.00,VWS V14.01,2013-03-06 15:25:00,
2013-03-06 09:30:00,36.6,26.7,30.22,NW,310,9.8,21.0,67,0.00,,BKN045,0.00,VWS V14.01,2013-03-06 15:30:00,
2013-03-06 09:35:00,36.6,26.7,30.22,NW,307,9.8,15.4,67,0.00,,BKN045,0.00,VWS V14.01,2013-03-06 15:35:00,
2013-03-06 09:40:00,36.8,27.2,30.22,West,279,9.8,16.8,68,0.00,,BKN045,0.00,VWS V14.01,2013-03-06 15:40:00,
2013-03-06 09:45:00,36.9,27.0,30.22,NW,316,15.4,15.4,67,0.00,,BKN045,0.00,VWS V14.01,2013-03-06 15:45:00,
2013-03-06 09:50:00,37.1,27.2,30.22,WNW,294,11.2,19.6,67,0.00,,BKN045,0.00,VWS V14.01,2013-03-06 15:50:00,
2013-03-06 09:55:00,37.5,27.5,30.22,NNW,337,11.2,15.4,67,0.00,,BKN045,0.00,VWS V14.01,2013-03-06 15:55:00,
2013-03-06 10:00:00,37.9,27.2,30.22,NW,313,9.8,15.4,65,0.00,,OVC033,0.00,VWS V14.01,2013-03-06 16:00:00,
2013-03-06 10:05:00,38.0,27.3,30.22,NNW,342,4.2,15.4,65,0.00,,OVC033,0.00,VWS V14.01,2013-03-06 16:05:00,
2013-03-06 10:10:00,38.1,27.4,30.23,WNW,291,11.2,21.0,65,0.00,,OVC033,0.00,VWS V14.01,2013-03-06 16:10:00,
2013-03-06 10:15:00,37.8,27.1,30.23,WNW,299,8.4,16.8,65,0.00,,OVC033,0.00,VWS V14.01,2013-03-06 16:15:00,
2013-03-06 10:20:00,38.0,27.7,30.23,NW,317,5.6,12.6,66,0.00,,OVC033,0.00,VWS V14.01,2013-03-06 16:20:00,
2013-03-06 10:25:00,38.1,27.8,30.23,West,279,14.0,14.0,66,0.00,,OVC033,0.00,VWS V14.01,2013-03-06 16:25:00,
2013-03-06 10:30:00,38.4,28.0,30.23,NW,326,7.0,15.4,66,0.00,,OVC033,0.00,VWS V14.01,2013-03-06 16:30:00,
2013-03-06 10:35:00,38.6,28.2,30.23,NW,326,4.2,7.0,66,0.00,,OVC033,0.00,VWS V14.01,2013-03-06 16:35:00,
2013-03-06 10:40:00,39.1,28.3,30.23,West,275,9.8,9.8,65,0.00,,OVC033,0.00,VWS V14.01,2013-03-06 16:40:00,
2013-03-06 10:45:00,39.1,28.3,30.23,West,277,2.8,9.8,65,0.00,,OVC033,0.00,VWS V14.01,2013-03-06 16:45:00,
2013-03-06 10:50:00,39.1,28.3,30.23,West,264,9.8,19.6,65,0.00,,OVC033,0.00,VWS V14.01,2013-03-06 16:50:00,
2013-03-06 10:55:00,39.0,28.2,30.23,WNW,294,7.0,14.0,65,0.00,,OVC033,0.00,VWS V14.01,2013-03-06 16:55:00,
2013-03-06 11:00:00,39.1,28.7,30.24,NNW,342,7.0,11.2,66,0.00,,BKN035,0.00,VWS V14.01,2013-03-06 17:00:00,
2013-03-06 11:05:00,39.0,28.2,30.24,NNW,333,9.8,19.6,65,0.00,,BKN035,0.00,VWS V14.01,2013-03-06 17:05:00,
2013-03-06 11:10:00,39.2,28.8,30.23,North,355,8.4,18.2,66,0.00,,BKN035,0.00,VWS V14.01,2013-03-06 17:10:00,
2013-03-06 11:15:00,39.8,29.0,30.23,North,355,12.6,16.8,65,0.00,,BKN035,0.00,VWS V14.01,2013-03-06 17:15:00,
2013-03-06 11:20:00,40.1,29.3,30.23,North,355,8.4,14.0,65,0.00,,BKN035,0.00,VWS V14.01,2013-03-06 17:20:00,
2013-03-06 11:25:00,40.2,29.0,30.23,NW,313,12.6,15.4,64,0.00,,BKN035,0.00,VWS V14.01,2013-03-06 17:25:00,
2013-03-06 11:30:00,40.3,29.1,30.23,North,355,9.8,15.4,64,0.00,,BKN035,0.00,VWS V14.01,2013-03-06 17:30:00,
2013-03-06 11:35:00,40.7,29.9,30.23,WNW,299,8.4,15.4,65,0.00,,BKN035,0.00,VWS V14.01,2013-03-06 17:35:00,
2013-03-06 11:40:00,41.0,29.8,30.23,NNW,333,5.6,11.2,64,0.00,,BKN035,0.00,VWS V14.01,2013-03-06 17:40:00,
2013-03-06 11:45:00,41.5,29.5,30.23,NW,319,8.4,23.8,62,0.00,,BKN035,0.00,VWS V14.01,2013-03-06 17:45:00,
2013-03-06 11:50:00,41.6,29.6,30.23,North,355,18.2,18.2,62,0.00,,BKN035,0.00,VWS V14.01,2013-03-06 17:50:00,
2013-03-06 11:55:00,42.3,30.6,30.23,NW,320,9.8,21.0,63,0.00,,BKN035,0.00,VWS V14.01,2013-03-06 17:55:00,
2013-03-06 12:00:00,42.2,30.1,30.23,NW,311,4.2,11.2,62,0.00,,OVC035,0.00,VWS V14.01,2013-03-06 18:00:00,
2013-03-06 12:05:00,42.5,30.4,30.23,NW,316,8.4,9.8,62,0.00,,OVC035,0.00,VWS V14.01,2013-03-06 18:05:00,
2013-03-06 12:10:00,42.9,30.0,30.23,WSW,257,11.2,11.2,60,0.00,,OVC035,0.00,VWS V14.01,2013-03-06 18:10:00,
2013-03-06 12:15:00,42.6,30.1,30.23,West,266,9.8,18.2,61,0.00,,OVC035,0.00,VWS V14.01,2013-03-06 18:15:00,
2013-03-06 12:20:00,42.6,30.5,30.23,North,5,15.4,15.4,62,0.00,,OVC035,0.00,VWS V14.01,2013-03-06 18:20:00,
2013-03-06 12:25:00,42.7,31.0,30.22,WNW,303,7.0,15.4,63,0.00,,OVC035,0.00,VWS V14.01,2013-03-06 18:25:00,
2013-03-06 12:30:00,42.5,30.0,30.22,North,5,14.0,16.8,61,0.00,,OVC035,0.00,VWS V14.01,2013-03-06 18:30:00,
2013-03-06 12:35:00,42.6,30.5,30.23,NNE,13,4.2,9.8,62,0.00,,OVC035,0.00,VWS V14.01,2013-03-06 18:35:00,
2013-03-06 12:40:00,42.7,30.6,30.22,WNW,295,8.4,19.6,62,0.00,,OVC035,0.00,VWS V14.01,2013-03-06 18:40:00,
2013-03-06 12:46:00,42.8,30.7,30.22,NNW,333,9.8,11.2,62,0.00,,OVC035,0.00,VWS V14.01,2013-03-06 18:46:00,
2013-03-06 12:51:00,43.0,30.5,30.22,North,5,9.8,14.0,61,0.00,,OVC035,0.00,VWS V14.01,2013-03-06 18:51:00,
2013-03-06 12:56:00,43.3,31.2,30.22,NW,325,15.4,15.4,62,0.00,,OVC035,0.00,VWS V14.01,2013-03-06 18:56:00,
2013-03-06 13:01:00,43.5,31.0,30.22,NNE,28,8.4,8.4,61,0.00,,BKN035,0.00,VWS V14.01,2013-03-06 19:01:00,
2013-03-06 13:06:00,43.7,31.1,30.22,NW,304,8.4,15.4,61,0.00,,BKN035,0.00,VWS V14.01,2013-03-06 19:06:00,
2013-03-06 13:11:00,44.2,31.6,30.21,NNW,331,9.8,18.2,61,0.00,,BKN035,0.00,VWS V14.01,2013-03-06 19:11:00,
2013-03-06 13:16:00,44.5,31.5,30.21,NNE,32,12.6,16.8,60,0.00,,BKN035,0.00,VWS V14.01,2013-03-06 19:16:00,
2013-03-06 13:21:00,44.6,31.6,30.21,NNW,334,7.0,15.4,60,0.00,,BKN035,0.00,VWS V14.01,2013-03-06 19:21:00,
2013-03-06 13:26:00,44.7,31.3,30.21,North,10,2.8,7.0,59,0.00,,BKN035,0.00,VWS V14.01,2013-03-06 19:26:00,
2013-03-06 13:31:00,44.9,31.9,30.21,NNW,347,2.8,16.8,60,0.00,,BKN035,0.00,VWS V14.01,2013-03-06 19:31:00,
2013-03-06 13:36:00,45.3,32.2,30.21,NW,321,15.4,15.4,60,0.00,,BKN035,0.00,VWS V14.01,2013-03-06 19:36:00,
2013-03-06 13:41:00,45.3,31.4,30.21,North,349,5.6,15.4,58,0.00,,BKN035,0.00,VWS V14.01,2013-03-06 19:41:00,
2013-03-06 13:46:00,44.9,31.5,30.21,WNW,288,5.6,16.8,59,0.00,,BKN035,0.00,VWS V14.01,2013-03-06 19:46:00,
2013-03-06 13:51:00,44.6,31.2,30.22,West,271,7.0,14.0,59,0.00,,BKN035,0.00,VWS V14.01,2013-03-06 19:51:00,
2013-03-06 13:56:00,44.5,31.5,30.22,WNW,301,5.6,15.4,60,0.00,,BKN035,0.00,VWS V14.01,2013-03-06 19:56:00,
2013-03-06 14:01:00,44.5,31.5,30.22,NW,319,7.0,8.4,60,0.00,,OVC038,0.00,VWS V14.01,2013-03-06 20:01:00,
2013-03-06 14:06:00,44.4,31.4,30.22,NW,323,1.4,15.4,60,0.00,,OVC038,0.00,VWS V14.01,2013-03-06 20:06:00,
2013-03-06 14:11:00,44.3,31.3,30.22,NNW,331,8.4,15.4,60,0.00,,OVC038,0.00,VWS V14.01,2013-03-06 20:11:00,
2013-03-06 14:16:00,44.2,31.2,30.22,NNW,341,12.6,12.6,60,0.00,,OVC038,0.00,VWS V14.01,2013-03-06 20:16:00,
2013-03-06 14:21:00,44.2,31.6,30.22,West,270,5.6,8.4,61,0.00,,OVC038,0.00,VWS V14.01,2013-03-06 20:21:00,
2013-03-06 14:26:00,44.1,31.5,30.22,WNW,301,11.2,15.4,61,0.00,,OVC038,0.00,VWS V14.01,2013-03-06 20:26:00,
2013-03-06 14:31:00,44.1,31.1,30.22,NNE,15,5.6,12.6,60,0.00,,OVC038,0.00,VWS V14.01,2013-03-06 20:31:00,
2013-03-06 14:36:00,44.1,31.1,30.22,NW,307,4.2,15.4,60,0.00,,OVC038,0.00,VWS V14.01,2013-03-06 20:36:00,
2013-03-06 14:41:00,44.2,31.6,30.22,WNW,284,9.8,15.4,61,0.00,,OVC038,0.00,VWS V14.01,2013-03-06 20:41:00,
2013-03-06 14:46:00,44.4,31.4,30.22,NNW,332,5.6,14.0,60,0.00,,OVC038,0.00,VWS V14.01,2013-03-06 20:46:00,
2013-03-06 14:51:00,44.5,31.1,30.23,NW,310,8.4,12.6,59,0.00,,OVC038,0.00,VWS V14.01,2013-03-06 20:51:00,
2013-03-06 14:56:00,44.4,31.8,30.23,WNW,296,4.2,11.2,61,0.00,,OVC038,0.00,VWS V14.01,2013-03-06 20:56:00,
2013-03-06 15:01:00,44.6,32.0,30.23,WNW,298,5.6,11.2,61,0.00,,OVC040,0.00,VWS V14.01,2013-03-06 21:01:00,
2013-03-06 15:06:00,44.3,31.3,30.23,WNW,285,8.4,12.6,60,0.00,,OVC040,0.00,VWS V14.01,2013-03-06 21:06:00,
2013-03-06 15:11:00,44.1,31.1,30.23,WNW,302,8.4,12.6,60,0.00,,OVC040,0.00,VWS V14.01,2013-03-06 21:11:00,
2013-03-06 15:16:00,44.0,31.0,30.23,North,349,7.0,11.2,60,0.00,,OVC040,0.00,VWS V14.01,2013-03-06 21:16:00,
2013-03-06 15:21:00,44.2,31.2,30.23,NNW,342,4.2,7.0,60,0.00,,OVC040,0.00,VWS V14.01,2013-03-06 21:21:00,
2013-03-06 15:27:00,44.2,31.6,30.23,West,271,5.6,8.4,61,0.00,,OVC040,0.00,VWS V14.01,2013-03-06 21:27:00,
2013-03-06 15:32:00,44.1,31.1,30.23,WNW,299,4.2,9.8,60,0.00,,OVC040,0.00,VWS V14.01,2013-03-06 21:32:00,
2013-03-06 15:37:00,44.1,31.5,30.24,WNW,290,5.6,7.0,61,0.00,,OVC040,0.00,VWS V14.01,2013-03-06 21:37:00,
2013-03-06 15:42:00,44.1,31.5,30.24,NW,322,8.4,9.8,61,0.00,,OVC040,0.00,VWS V14.01,2013-03-06 21:42:00,
2013-03-06 15:47:00,44.1,31.1,30.24,NNW,346,8.4,11.2,60,0.00,,OVC040,0.00,VWS V14.01,2013-03-06 21:47:00,
2013-03-06 15:52:00,44.0,31.4,30.24,NW,323,4.2,8.4,61,0.00,,OVC040,0.00,VWS V14.01,2013-03-06 21:52:00,
2013-03-06 15:57:00,43.8,30.8,30.24,NNW,340,5.6,12.6,60,0.00,,OVC040,0.00,VWS V14.01,2013-03-06 21:57:00,
2013-03-06 16:02:00,43.7,31.1,30.24,NE,55,2.8,7.0,61,0.00,,OVC040,0.00,VWS V14.01,2013-03-06 22:02:00,
2013-03-06 16:07:00,43.6,31.0,30.24,NW,325,11.2,11.2,61,0.00,,OVC040,0.00,VWS V14.01,2013-03-06 22:07:00,
2013-03-06 16:12:00,43.5,31.0,30.24,WNW,290,7.0,15.4,61,0.00,,OVC040,0.00,VWS V14.01,2013-03-06 22:12:00,
2013-03-06 16:17:00,43.4,30.9,30.24,NW,311,2.8,8.4,61,0.00,,OVC040,0.00,VWS V14.01,2013-03-06 22:17:00,
2013-03-06 16:22:00,43.6,31.0,30.25,North,11,4.2,15.4,61,0.00,,OVC040,0.00,VWS V14.01,2013-03-06 22:22:00,
2013-03-06 16:27:00,43.5,31.0,30.25,West,279,8.4,11.2,61,0.00,,OVC040,0.00,VWS V14.01,2013-03-06 22:27:00,
2013-03-06 16:32:00,43.4,30.9,30.25,NNW,330,5.6,12.6,61,0.00,,OVC040,0.00,VWS V14.01,2013-03-06 22:32:00,
2013-03-06 16:37:00,43.3,30.8,30.25,WNW,296,5.6,9.8,61,0.00,,OVC040,0.00,VWS V14.01,2013-03-06 22:37:00,
2013-03-06 16:42:00,43.3,30.8,30.25,NNW,348,5.6,12.6,61,0.00,,OVC040,0.00,VWS V14.01,2013-03-06 22:42:00,
2013-03-06 16:47:00,43.0,30.9,30.24,NW,315,2.8,9.8,62,0.00,,OVC040,0.00,VWS V14.01,2013-03-06 22:47:00,
2013-03-06 16:52:00,42.9,30.8,30.25,North,355,7.0,7.0,62,0.00,,OVC040,0.00,VWS V14.01,2013-03-06 22:52:00,
2013-03-06 16:57:00,43.0,30.9,30.25,WNW,292,5.6,5.6,62,0.00,,OVC040,0.00,VWS V14.01,2013-03-06 22:57:00,
2013-03-06 17:02:00,42.9,30.4,30.25,North,355,2.8,12.6,61,0.00,,OVC040,0.00,VWS V14.01,2013-03-06 23:02:00,
2013-03-06 17:07:00,42.8,30.7,30.25,North,350,5.6,8.4,62,0.00,,OVC040,0.00,VWS V14.01,2013-03-06 23:07:00,
2013-03-06 17:12:00,42.8,30.7,30.25,NNE,19,0.0,5.6,62,0.00,,OVC040,0.00,VWS V14.01,2013-03-06 23:12:00,
2013-03-06 17:17:00,42.7,30.6,30.25,NW,321,2.8,11.2,62,0.00,,OVC040,0.00,VWS V14.01,2013-03-06 23:17:00,
2013-03-06 17:22:00,42.6,30.5,30.25,WNW,298,2.8,8.4,62,0.00,,OVC040,0.00,VWS V14.01,2013-03-06 23:22:00,
2013-03-06 17:27:00,42.5,30.8,30.25,NW,319,0.0,4.2,63,0.00,,OVC040,0.00,VWS V14.01,2013-03-06 23:27:00,
2013-03-06 17:32:00,42.4,30.7,30.25,NNW,340,5.6,9.8,63,0.00,,OVC040,0.00,VWS V14.01,2013-03-06 23:32:00,
2013-03-06 17:37:00,42.3,30.2,30.25,NW,321,7.0,9.8,62,0.00,,OVC040,0.00,VWS V14.01,2013-03-06 23:37:00,
2013-03-06 17:42:00,42.2,30.5,30.25,NNW,346,8.4,11.2,63,0.00,,OVC040,0.00,VWS V14.01,2013-03-06 23:42:00,
2013-03-06 17:47:00,42.1,30.4,30.25,North,9,5.6,7.0,63,0.00,,OVC040,0.00,VWS V14.01,2013-03-06 23:47:00,
2013-03-06 17:52:00,42.0,30.3,30.26,NNW,343,5.6,8.4,63,0.00,,OVC040,0.00,VWS V14.01,2013-03-06 23:52:00,
2013-03-06 17:57:00,41.9,30.6,30.26,NW,319,1.4,4.2,64,0.00,,OVC040,0.00,VWS V14.01,2013-03-06 23:57:00,
2013-03-06 18:02:00,41.7,30.4,30.26,North,355,5.6,7.0,64,0.00,,OVC040,0.00,VWS V14.01,2013-03-07 00:02:00,
2013-03-06 18:07:00,41.5,30.6,30.26,NNE,12,4.2,5.6,65,0.00,,OVC040,0.00,VWS V14.01,2013-03-07 00:07:00,
2013-03-06 18:12:00,41.3,30.4,30.26,North,9,5.6,12.6,65,0.00,,OVC040,0.00,VWS V14.01,2013-03-07 00:12:00,
2013-03-06 18:17:00,41.1,30.2,30.26,NW,323,5.6,8.4,65,0.00,,OVC040,0.00,VWS V14.01,2013-03-07 00:17:00,
2013-03-06 18:22:00,40.9,30.4,30.26,NW,311,2.8,9.8,66,0.00,,OVC040,0.00,VWS V14.01,2013-03-07 00:22:00,
2013-03-06 18:27:00,40.7,30.2,30.26,North,355,5.6,7.0,66,0.00,,OVC040,0.00,VWS V14.01,2013-03-07 00:27:00,
2013-03-06 18:32:00,40.5,30.0,30.26,NNW,344,5.6,5.6,66,0.00,,OVC040,0.00,VWS V14.01,2013-03-07 00:32:00,
2013-03-06 18:37:00,40.4,30.0,30.26,NW,326,1.4,4.2,66,0.00,,OVC040,0.00,VWS V14.01,2013-03-07 00:37:00,
2013-03-06 18:42:00,40.3,30.2,30.26,NNW,328,2.8,5.6,67,0.00,,OVC040,0.00,VWS V14.01,2013-03-07 00:42:00,
2013-03-06 18:47:00,40.1,30.0,30.26,NNW,337,0.0,5.6,67,0.00,,OVC040,0.00,VWS V14.01,2013-03-07 00:47:00,
2013-03-06 18:52:00,39.8,29.8,30.26,NNW,338,1.4,4.2,67,0.00,,OVC040,0.00,VWS V14.01,2013-03-07 00:52:00,
2013-03-06 18:57:00,39.7,30.0,30.26,NNW,335,2.8,2.8,68,0.00,,OVC040,0.00,VWS V14.01,2013-03-07 00:57:00,
2013-03-06 19:02:00,39.5,29.8,30.26,NE,40,1.4,4.2,68,0.00,,FEW040,0.00,VWS V14.01,2013-03-07 01:02:00,
2013-03-06 19:07:00,39.2,29.5,30.26,NNW,336,1.4,2.8,68,0.00,,FEW040,0.00,VWS V14.01,2013-03-07 01:07:00,
2013-03-06 19:12:00,39.0,29.4,30.26,NNW,347,0.0,2.8,68,0.00,,FEW040,0.00,VWS V14.01,2013-03-07 01:12:00,
2013-03-06 19:17:00,38.8,29.5,30.26,North,360,1.4,2.8,69,0.00,,FEW040,0.00,VWS V14.01,2013-03-07 01:17:00,
2013-03-06 19:22:00,38.6,29.3,30.26,NNW,342,1.4,2.8,69,0.00,,FEW040,0.00,VWS V14.01,2013-03-07 01:22:00,
2013-03-06 19:27:00,38.4,29.5,30.26,NW,323,0.0,1.4,70,0.00,,FEW040,0.00,VWS V14.01,2013-03-07 01:27:00,
2013-03-06 19:32:00,38.2,29.3,30.26,NNW,330,1.4,7.0,70,0.00,,FEW040,0.00,VWS V14.01,2013-03-07 01:32:00,
2013-03-06 19:37:00,38.0,29.1,30.26,NNW,334,1.4,2.8,70,0.00,,FEW040,0.00,VWS V14.01,2013-03-07 01:37:00,
2013-03-06 19:42:00,37.9,29.0,30.26,NNW,340,0.0,2.8,70,0.00,,FEW040,0.00,VWS V14.01,2013-03-07 01:42:00,
2013-03-06 19:47:00,37.4,28.9,30.25,NW,324,1.4,4.2,71,0.00,,FEW040,0.00,VWS V14.01,2013-03-07 01:47:00,
2013-03-06 19:52:00,37.0,28.8,30.26,NNW,335,0.0,2.8,72,0.00,,FEW040,0.00,VWS V14.01,2013-03-07 01:52:00,
2013-03-06 19:58:00,36.6,29.1,30.25,NW,323,1.4,2.8,74,0.00,,FEW040,0.00,VWS V14.01,2013-03-07 01:58:00,
2013-03-06 20:03:00,36.2,29.0,30.25,NNW,330,1.4,2.8,75,0.00,,CLR,0.00,VWS V14.01,2013-03-07 02:03:00,
2013-03-06 20:08:00,35.8,29.0,30.26,NNW,330,0.0,1.4,76,0.00,,CLR,0.00,VWS V14.01,2013-03-07 02:08:00,
2013-03-06 20:13:00,35.4,28.6,30.26,NNW,330,0.0,0.0,76,0.00,,CLR,0.00,VWS V14.01,2013-03-07 02:13:00,
2013-03-06 20:18:00,35.2,28.7,30.26,NNW,330,0.0,0.0,77,0.00,,CLR,0.00,VWS V14.01,2013-03-07 02:18:00,
2013-03-06 20:23:00,34.8,28.3,30.26,NNW,330,0.0,0.0,77,0.00,,CLR,0.00,VWS V14.01,2013-03-07 02:23:00,
2013-03-06 20:28:00,34.5,28.4,30.26,NNW,330,0.0,0.0,78,0.00,,CLR,0.00,VWS V14.01,2013-03-07 02:28:00,
2013-03-06 20:33:00,34.2,28.4,30.25,NNW,330,0.0,1.4,79,0.00,,CLR,0.00,VWS V14.01,2013-03-07 02:33:00,
2013-03-06 20:38:00,33.9,28.1,30.25,NNW,330,0.0,0.0,79,0.00,,CLR,0.00,VWS V14.01,2013-03-07 02:38:00,
2013-03-06 20:43:00,33.6,27.8,30.25,NNW,330,0.0,0.0,79,0.00,,CLR,0.00,VWS V14.01,2013-03-07 02:43:00,
2013-03-06 20:48:00,33.5,28.0,30.24,NNW,330,0.0,0.0,80,0.00,,CLR,0.00,VWS V14.01,2013-03-07 02:48:00,
2013-03-06 20:53:00,33.5,28.0,30.25,NNW,330,0.0,0.0,80,0.00,,CLR,0.00,VWS V14.01,2013-03-07 02:53:00,
2013-03-06 20:58:00,33.4,27.9,30.25,NNW,330,0.0,0.0,80,0.00,,CLR,0.00,VWS V14.01,2013-03-07 02:58:00,
2013-03-06 21:03:00,33.3,27.8,30.27,NNW,330,2.8,2.8,80,0.00,,CLR,0.00,VWS V14.01,2013-03-07 03:03:00,
2013-03-06 21:08:00,33.2,27.7,30.26,NNW,330,0.0,0.0,80,0.00,,CLR,0.00,VWS V14.01,2013-03-07 03:08:00,
2013-03-06 21:13:00,33.0,27.5,30.26,NNW,330,0.0,0.0,80,0.00,,CLR,0.00,VWS V14.01,2013-03-07 03:13:00,
2013-03-06 21:18:00,32.9,27.4,30.26,NNW,330,0.0,0.0,80,0.00,,CLR,0.00,VWS V14.01,2013-03-07 03:18:00,
2013-03-06 21:23:00,32.8,27.3,30.26,NNW,330,0.0,0.0,80,0.00,,CLR,0.00,VWS V14.01,2013-03-07 03:23:00,
2013-03-06 21:28:00,32.7,27.5,30.26,NNW,330,0.0,0.0,81,0.00,,CLR,0.00,VWS V14.01,2013-03-07 03:28:00,
2013-03-06 21:33:00,32.5,27.3,30.27,NNW,330,0.0,0.0,81,0.00,,CLR,0.00,VWS V14.01,2013-03-07 03:33:00,
2013-03-06 21:38:00,32.3,27.1,30.27,NNW,330,0.0,0.0,81,0.00,,CLR,0.00,VWS V14.01,2013-03-07 03:38:00,
2013-03-06 21:43:00,32.2,27.0,30.27,NNW,330,0.0,0.0,81,0.00,,CLR,0.00,VWS V14.01,2013-03-07 03:43:00,
2013-03-06 21:48:00,32.0,27.1,30.27,NNW,330,0.0,0.0,82,0.00,,CLR,0.00,VWS V14.01,2013-03-07 03:48:00,
2013-03-06 21:53:00,31.9,27.0,30.28,North,350,0.0,2.8,82,0.00,,CLR,0.00,VWS V14.01,2013-03-07 03:53:00,
2013-03-06 21:58:00,31.8,26.9,30.28,NNW,337,0.0,0.0,82,0.00,,CLR,0.00,VWS V14.01,2013-03-07 03:58:00,
2013-03-06 22:03:00,31.6,26.8,30.28,NNW,337,0.0,0.0,82,0.00,,CLR,0.00,VWS V14.01,2013-03-07 04:03:00,
2013-03-06 22:08:00,31.5,26.6,30.28,NNW,337,0.0,2.8,82,0.00,,CLR,0.00,VWS V14.01,2013-03-07 04:08:00,
2013-03-06 22:13:00,31.5,26.9,30.28,NNW,337,0.0,0.0,83,0.00,,CLR,0.00,VWS V14.01,2013-03-07 04:13:00,
2013-03-06 22:18:00,31.3,26.8,30.28,NNW,337,0.0,0.0,83,0.00,,CLR,0.00,VWS V14.01,2013-03-07 04:18:00,
2013-03-06 22:23:00,31.2,26.9,30.28,NNW,332,0.0,4.2,84,0.00,,CLR,0.00,VWS V14.01,2013-03-07 04:23:00,
2013-03-06 22:28:00,31.2,26.6,30.28,NNW,340,0.0,0.0,83,0.00,,CLR,0.00,VWS V14.01,2013-03-07 04:28:00,
2013-03-06 22:33:00,31.1,26.8,30.28,NNE,16,0.0,0.0,84,0.00,,CLR,0.00,VWS V14.01,2013-03-07 04:33:00,
2013-03-06 22:38:00,31.0,26.7,30.28,NNE,15,0.0,0.0,84,0.00,,CLR,0.00,VWS V14.01,2013-03-07 04:38:00,
2013-03-06 22:43:00,31.0,26.7,30.28,NNE,15,0.0,0.0,84,0.00,,CLR,0.00,VWS V14.01,2013-03-07 04:43:00,
2013-03-06 22:48:00,30.9,26.6,30.27,NNE,15,0.0,0.0,84,0.00,,CLR,0.00,VWS V14.01,2013-03-07 04:48:00,
2013-03-06 22:53:00,30.9,26.6,30.27,NNE,15,0.0,0.0,84,0.00,,CLR,0.00,VWS V14.01,2013-03-07 04:53:00,
2013-03-06 22:58:00,30.8,26.5,30.28,NNE,15,0.0,0.0,84,0.00,,CLR,0.00,VWS V14.01,2013-03-07 04:58:00,
2013-03-06 23:00:00,30.8,26.5,30.28,NNE,15,0.0,0.0,84,0.00,,FEW250,0.00,VWS V14.01,2013-03-07 05:00:00,
2013-03-06 23:05:00,30.7,26.5,30.28,NNE,15,0.0,1.4,84,0.00,,FEW250,0.00,VWS V14.01,2013-03-07 05:05:00,
2013-03-06 23:10:00,30.6,26.4,30.28,NNE,15,0.0,0.0,84,0.00,,FEW250,0.00,VWS V14.01,2013-03-07 05:10:00,
2013-03-06 23:15:00,30.5,26.2,30.28,NNE,15,0.0,1.4,84,0.00,,FEW250,0.00,VWS V14.01,2013-03-07 05:15:00,
2013-03-06 23:20:00,30.4,26.1,30.28,NNW,344,1.4,2.8,84,0.00,,FEW250,0.00,VWS V14.01,2013-03-07 05:20:00,
2013-03-06 23:25:00,30.3,26.1,30.28,NNW,343,0.0,1.4,84,0.00,,FEW250,0.00,VWS V14.01,2013-03-07 05:25:00,
2013-03-06 23:30:00,30.3,26.1,30.28,NNW,343,0.0,0.0,84,0.00,,FEW250,0.00,VWS V14.01,2013-03-07 05:30:00,
2013-03-06 23:35:00,30.2,26.0,30.28,NNW,343,0.0,2.8,84,0.00,,FEW250,0.00,VWS V14.01,2013-03-07 05:35:00,
2013-03-06 23:40:00,30.1,25.9,30.28,NNW,343,0.0,0.0,84,0.00,,FEW250,0.00,VWS V14.01,2013-03-07 05:40:00,
2013-03-06 23:46:00,29.9,25.7,30.27,NNW,343,0.0,0.0,84,0.00,,FEW250,0.00,VWS V14.01,2013-03-07 05:46:00,
2013-03-06 23:51:00,29.8,25.9,30.28,NNW,345,0.0,1.4,85,0.00,,FEW250,0.00,VWS V14.01,2013-03-07 05:51:00,
2013-03-06 23:56:00,29.7,25.8,30.27,NNW,345,1.4,1.4,85,0.00,,FEW250,0.00,VWS V14.01,2013-03-07 05:56:00,